createdAt,value
2022-12-08T00:06:39.428Z,298
2022-12-08T00:26:39.485Z,301
2022-12-08T00:46:39.562Z,304
2022-12-08T01:06:39.585Z,304
2022-12-08T01:26:39.620Z,304
2022-12-08T01:46:39.718Z,303
2022-12-08T02:06:39.704Z,305
2022-12-08T02:26:39.761Z,306
2022-12-08T02:46:39.704Z,307
2022-12-08T03:06:39.835Z,307
2022-12-08T03:26:39.882Z,307
2022-12-08T03:46:39.865Z,303
2022-12-08T04:06:39.968Z,300
2022-12-08T04:26:40.001Z,294
2022-12-08T04:46:43.296Z,290
2022-12-08T06:06:40.220Z,281
2022-12-08T06:26:47.272Z,287
2022-12-08T06:46:40.291Z,293
2022-12-08T07:06:40.497Z,297
2022-12-08T07:26:47.382Z,298
2022-12-08T07:46:40.496Z,300
2022-12-08T08:06:40.487Z,303
2022-12-08T08:26:40.525Z,301
2022-12-08T09:06:40.715Z,307
2022-12-08T09:26:47.707Z,309
2022-12-08T09:46:40.733Z,309
2022-12-08T10:06:40.764Z,305
2022-12-08T10:26:40.790Z,306
2022-12-08T10:46:40.893Z,302
2022-12-08T11:06:40.884Z,298
2022-12-08T11:26:40.912Z,295
2022-12-08T11:46:40.945Z,291
2022-12-08T12:06:54.075Z,290
2022-12-08T12:26:41.059Z,293
2022-12-08T12:46:48.092Z,298
2022-12-08T13:06:41.138Z,308
2022-12-08T13:26:41.187Z,314
2022-12-08T13:47:17.101Z,320
2022-12-08T14:06:41.250Z,326
2022-12-08T14:26:41.320Z,330
2022-12-08T15:06:41.391Z,345
2022-12-08T15:26:41.445Z,346
2022-12-08T15:46:41.585Z,348
2022-12-08T16:27:51.068Z,341
2022-12-08T16:46:41.624Z,334
2022-12-08T17:06:41.574Z,328
2022-12-08T17:26:41.708Z,324
2022-12-08T17:46:43.501Z,321
2022-12-08T18:06:41.797Z,323
2022-12-08T18:26:41.811Z,328
2022-12-08T18:46:41.947Z,335
2022-12-08T19:06:41.811Z,338
2022-12-08T19:26:41.989Z,338
2022-12-08T19:46:42.102Z,338
2022-12-08T20:06:42.055Z,342
2022-12-08T20:26:42.080Z,338
2022-12-08T20:46:46.363Z,339
2022-12-08T21:06:42.184Z,338
2022-12-08T21:26:42.239Z,338
2022-12-08T21:46:42.319Z,335
2022-12-08T22:06:42.501Z,335
2022-12-08T22:26:42.449Z,336
2022-12-08T22:46:42.468Z,335
2022-12-08T23:06:42.449Z,335
2022-12-08T23:26:42.516Z,333
2022-12-08T23:46:42.794Z,329
